Pagrindinis puslapis
METAR-TAF:

METAR-TAF

Oro uostai :

Sand Point, Aliaska, Jungtinės Amerikos Valstijos

platuma: 55-19N, ilguma: 160-31W, Aukštis: 7 m

Dabartinis oras

Ataskaita buvo paskelbta 28 minutes, ne 04:56 UTC
Vėjas 7 kt iš Šiaurės
Temperatūra 9°C
Drėgmė 81%
Slėgis 1006 hPa
Matomumas: 16.1 km
Mažai debesys ne aukštis 3400 ft

METAR: PASD 210456Z AUTO 35007KT 10SM FEW034 09/06 A2970 RMK AO2 SLP059 T00940056 $

Laikas: 21:24 (05:24 UTC)

Prognozė

Ataskaita buvo paskelbta 6 valandos ir 3 minutes, ne 23:21 UTC
Prognozė galioja nuo 21 metu 00 UTC su 21 metu 24 UTC
Vėjas 16 kt iš Šiaurės Vakarų
Matomumas: 10 km
Su prošvaistėmis ne aukštis 4000 ft
Nuo 21 metu 0900 UTC
Vėjas 8 kt iš Vakarų/Šiaurės Vakarų
Matomumas: 10 km
Mažai debesys ne aukštis 4000 ft

TAF: PASD 202321Z 2100/2124 32016KT P6SM BKN040 FM210900 30008KT P6SM FEW040 AMD LTD TO CLD VIS AND WIND

Orai ataskaitas ir orų prognozės (METAR, TAF).

turimą stotys yra geltonos ir raudonos taškus žemėlapyje.

Perkelti pele per norėdami pamatyti stoties vardą.

Tada spustelėkite, norėdami matyti oro stebėjimo ir prognozės.

Norėdami pakeisti žemėlapį: spustelėkite ant žalios mygtukų su juodo kryžiaus žemyn,; žalią mygtuką su brūkšneliu, jei norite nutolinti; arba žalių rodyklių gretimoms žemėlapius.


METAR-TAF: